WAAA/UPG METAR and TAF weather

Enter ICAO airport designator
Station Type Date Time Source
WAAA METAR 2020/04/03 23:00 UTC NOAA

WAAA 032300Z 11002KT 9999 FEW019 26/25 Q1011 NOSIG


Station Type Date Time Source
WAAA Decoded METAR 2020/04/03 23:00 UTC NOAA

Ujung Pandang / Hasanuddin, Indonesia (WAAA) 05-04S 119-33E 14M
Apr 03, 2020 - 07:00 PM EDT / 2020.04.03 2300 UTC
Wind: from the ESE (110 degrees) at 2 MPH (2 KT):0
Visibility: greater than 7 mile(s):0
Sky conditions: mostly clear
Temperature: 78 F (26 C)
Dew Point: 77 F (25 C)
Relative Humidity: 94%
Pressure (altimeter): 29.85 in. Hg (1011 hPa)
ob: WAAA 032300Z 11002KT 9999 FEW019 26/25 Q1011 NOSIG
cycle: 23

Station Type Date Time Source
WAAA TAF 2020/04/03 18:07 UTC NOAA

TAF WAAA 031700Z 0318/0500 11004KT 8000 SCT019
BECMG 0321/0323 9999
BECMG 0400/0402 33010KT

Example: see airport list